createdAt,value
2023-01-21T00:02:13.472Z,-1.60
2023-01-21T00:04:40.109Z,-1.60
2023-01-21T00:07:07.564Z,-1.60
2023-01-21T00:09:34.617Z,-1.40
2023-01-21T00:12:04.337Z,-1.40
2023-01-21T00:14:31.294Z,-1.40
2023-01-21T00:16:58.295Z,-1.30
2023-01-21T00:19:25.506Z,-1.30
2023-01-21T00:21:52.214Z,-1.30
2023-01-21T00:24:18.849Z,-1.30
2023-01-21T00:26:45.430Z,-1.60
2023-01-21T00:29:12.128Z,-1.30
2023-01-21T00:31:38.885Z,-1.40
2023-01-21T00:34:05.640Z,-1.40
2023-01-21T00:36:32.305Z,-1.30
2023-01-21T00:38:59.635Z,-1.60
2023-01-21T00:41:26.351Z,-1.50
2023-01-21T00:43:53.307Z,-1.40
2023-01-21T00:46:19.998Z,-1.50
2023-01-21T00:48:46.599Z,-1.50
2023-01-21T00:51:13.379Z,-1.50
2023-01-21T00:53:42.013Z,-1.50
2023-01-21T00:56:09.909Z,-1.60
2023-01-21T00:58:36.621Z,-0.90
2023-01-21T01:01:07.969Z,-1.50
2023-01-21T01:03:35.065Z,-1.60
2023-01-21T01:06:03.017Z,-1.50
2023-01-21T01:08:29.651Z,-1.50
2023-01-21T01:10:56.305Z,-1.70
2023-01-21T01:13:22.948Z,-1.60
2023-01-21T01:15:52.489Z,-1.70
2023-01-21T01:18:19.081Z,-1.70
2023-01-21T01:20:47.313Z,-1.60
2023-01-21T01:23:14.015Z,-1.60
2023-01-21T01:25:40.827Z,-1.70
2023-01-21T01:28:07.481Z,-1.70
2023-01-21T01:30:34.874Z,-2.00
2023-01-21T01:33:01.467Z,-2.10
2023-01-21T01:35:28.367Z,-2.00
2023-01-21T01:37:54.958Z,-2.40
2023-01-21T01:40:21.559Z,-2.50
2023-01-21T01:45:15.130Z,-2.40
2023-01-21T01:47:50.643Z,-1.70
2023-01-21T01:50:19.155Z,-2.60
2023-01-21T01:52:46.120Z,-2.30
2023-01-21T01:55:15.300Z,-2.70
2023-01-21T02:00:11.301Z,-2.80
2023-01-21T02:02:42.502Z,-2.80
2023-01-21T02:05:10.835Z,-2.80
2023-01-21T02:07:39.996Z,-3.20
2023-01-21T02:10:07.422Z,-2.80
2023-01-21T02:12:37.348Z,-2.90
2023-01-21T02:15:04.451Z,-2.50
2023-01-21T02:17:43.629Z,-2.90
2023-01-21T02:20:16.612Z,-3.00
2023-01-21T02:22:43.270Z,-3.00
2023-01-21T02:25:12.824Z,-3.00
2023-01-21T02:27:42.713Z,-3.00
2023-01-21T02:30:18.643Z,-3.00
2023-01-21T02:33:04.121Z,-3.20
2023-01-21T02:36:03.037Z,-3.00
2023-01-21T02:38:29.531Z,-3.00
2023-01-21T02:41:16.316Z,-3.00
2023-01-21T02:44:01.535Z,-3.10
2023-01-21T02:46:40.027Z,-3.10
2023-01-21T02:49:11.508Z,-3.10
2023-01-21T02:54:14.743Z,-3.20
2023-01-21T02:59:08.294Z,-3.40
2023-01-21T03:01:45.892Z,-3.40
2023-01-21T03:04:24.685Z,-3.40
2023-01-21T03:07:08.433Z,-3.40
2023-01-21T03:09:35.133Z,-3.50
2023-01-21T03:12:16.950Z,-3.40
2023-01-21T03:15:21.143Z,-3.50
2023-01-21T03:18:03.802Z,-3.60
2023-01-21T03:20:30.445Z,-3.60
2023-01-21T03:23:00.223Z,-3.60
2023-01-21T03:25:27.336Z,-3.60
2023-01-21T03:27:54.217Z,-3.80
2023-01-21T03:30:23.275Z,-3.80
2023-01-21T03:32:51.170Z,-3.70
2023-01-21T03:35:20.711Z,-3.70
2023-01-21T03:37:49.532Z,-3.70
2023-01-21T03:40:25.714Z,-3.60
2023-01-21T03:47:54.388Z,-3.80
2023-01-21T03:50:24.207Z,-3.80
2023-01-21T03:52:50.773Z,-3.80
2023-01-21T03:55:17.711Z,-3.80
2023-01-21T03:57:44.515Z,-3.90
2023-01-21T04:00:11.585Z,-3.90
2023-01-21T04:02:38.103Z,-3.80
2023-01-21T04:05:04.794Z,-3.80
2023-01-21T04:07:31.397Z,-3.80
2023-01-21T04:09:57.958Z,-3.80
2023-01-21T04:12:24.559Z,-3.80
2023-01-21T04:14:51.108Z,-3.90
2023-01-21T04:17:17.686Z,-3.80
2023-01-21T04:19:44.232Z,-3.70
2023-01-21T04:22:10.799Z,-3.70
2023-01-21T04:24:37.326Z,-3.70
2023-01-21T04:27:03.947Z,-3.70
2023-01-21T04:29:30.467Z,-3.70
2023-01-21T04:31:57.059Z,-3.70
2023-01-21T04:34:23.579Z,-3.60
2023-01-21T04:36:50.156Z,-3.60
2023-01-21T04:39:16.715Z,-3.50
2023-01-21T04:41:43.270Z,-3.40
2023-01-21T04:44:09.824Z,-3.40
2023-01-21T04:46:36.450Z,-3.30
2023-01-21T04:49:03.074Z,-3.20
2023-01-21T04:51:29.588Z,-3.20
2023-01-21T04:53:56.167Z,-3.10
2023-01-21T04:56:22.826Z,-3.10
2023-01-21T04:58:49.350Z,-3.10
2023-01-21T05:01:15.933Z,-3.00
2023-01-21T05:03:42.571Z,-3.00
2023-01-21T05:06:09.159Z,-3.10
2023-01-21T05:08:35.747Z,-3.00
2023-01-21T05:11:02.278Z,-3.00
2023-01-21T05:13:28.808Z,-2.80
2023-01-21T05:15:55.780Z,-2.90
2023-01-21T05:18:22.338Z,-2.80
2023-01-21T05:20:48.897Z,-2.70
2023-01-21T05:23:15.447Z,-2.80
2023-01-21T05:25:41.981Z,-2.90
2023-01-21T05:28:08.497Z,-2.90
2023-01-21T05:30:35.063Z,-3.10
2023-01-21T05:33:02.029Z,-3.20
2023-01-21T05:35:28.608Z,-3.10
2023-01-21T05:37:55.312Z,-3.20
2023-01-21T05:40:22.179Z,-3.00
2023-01-21T05:42:48.742Z,-3.30
2023-01-21T05:45:15.351Z,-3.40
2023-01-21T05:47:42.172Z,-3.40
2023-01-21T05:50:12.093Z,-3.40
2023-01-21T05:52:39.049Z,-3.40
2023-01-21T05:55:05.854Z,-3.30
2023-01-21T05:57:32.454Z,-3.40
2023-01-21T05:59:59.060Z,-3.30
2023-01-21T06:02:25.949Z,-3.40
2023-01-21T06:04:52.689Z,-3.40
2023-01-21T06:07:19.253Z,-3.40
2023-01-21T06:09:45.782Z,-3.40
2023-01-21T06:12:12.328Z,-3.30
2023-01-21T06:14:38.866Z,-3.40
2023-01-21T06:17:05.467Z,-3.40
2023-01-21T06:19:32.014Z,-3.40
2023-01-21T06:21:58.559Z,-3.40
2023-01-21T06:24:25.097Z,-3.40
2023-01-21T06:26:52.325Z,-3.40
2023-01-21T06:29:18.993Z,-3.40
2023-01-21T06:31:45.692Z,-3.40
2023-01-21T06:34:12.661Z,-3.40
2023-01-21T06:36:40.893Z,-3.40
2023-01-21T06:39:09.452Z,-3.40
2023-01-21T06:41:35.989Z,-3.40
2023-01-21T06:44:02.921Z,-3.40
2023-01-21T06:46:29.520Z,-3.30
2023-01-21T06:48:56.139Z,-3.30
2023-01-21T06:51:22.668Z,-3.40
2023-01-21T06:53:49.185Z,-3.30
2023-01-21T06:56:15.805Z,-3.30
2023-01-21T06:58:42.324Z,-3.30
2023-01-21T07:01:08.850Z,-3.20
2023-01-21T07:03:35.524Z,-3.10
2023-01-21T07:06:02.079Z,-3.10
2023-01-21T07:08:28.635Z,-3.10
2023-01-21T07:10:55.421Z,-3.00
2023-01-21T07:13:21.965Z,-3.10
2023-01-21T07:15:48.523Z,-3.00
2023-01-21T07:18:15.137Z,-3.10
2023-01-21T07:20:42.450Z,-3.00
2023-01-21T07:23:09.022Z,-3.00
2023-01-21T07:25:37.328Z,-3.00
2023-01-21T07:28:03.940Z,-3.00
2023-01-21T07:30:30.478Z,-3.00
2023-01-21T07:32:57.019Z,-3.00
2023-01-21T07:35:23.555Z,-2.90
2023-01-21T07:37:50.123Z,-2.80
2023-01-21T07:40:16.745Z,-2.70
2023-01-21T07:42:43.307Z,-2.70
2023-01-21T07:45:10.095Z,-2.60
2023-01-21T07:47:36.652Z,-2.50
2023-01-21T07:50:08.353Z,-2.40
2023-01-21T07:52:34.897Z,-2.10
2023-01-21T07:55:01.762Z,-2.10
2023-01-21T07:57:28.331Z,-2.00
2023-01-21T07:59:55.032Z,-2.00
2023-01-21T08:02:21.847Z,-2.00
2023-01-21T08:04:48.823Z,-2.00
2023-01-21T08:07:15.392Z,-1.90
2023-01-21T08:12:09.548Z,-1.70
2023-01-21T08:14:38.496Z,-2.00
2023-01-21T08:19:32.168Z,-1.60
2023-01-21T08:21:59.000Z,-1.60
2023-01-21T08:24:25.610Z,-1.50
2023-01-21T08:26:52.176Z,-1.30
2023-01-21T08:29:18.819Z,-1.50
2023-01-21T08:31:45.566Z,-2.00
2023-01-21T08:34:12.273Z,-1.50
2023-01-21T08:36:39.797Z,-1.20
2023-01-21T08:39:06.526Z,-1.40
2023-01-21T08:41:33.559Z,-0.50
2023-01-21T08:44:00.516Z,-1.30
2023-01-21T08:46:27.118Z,-1.20
2023-01-21T08:48:53.729Z,-1.30
2023-01-21T08:51:20.437Z,-1.30
2023-01-21T08:53:48.637Z,-1.30
2023-01-21T08:56:15.286Z,-1.10
2023-01-21T08:58:41.979Z,-1.10
2023-01-21T09:01:09.427Z,-1.10
2023-01-21T09:03:36.240Z,-0.70
2023-01-21T09:06:03.314Z,-0.80
2023-01-21T09:08:30.186Z,-0.80
2023-01-21T09:11:03.478Z,-0.80
2023-01-21T09:13:37.126Z,-1.10
2023-01-21T09:16:10.205Z,-0.50
2023-01-21T09:18:37.488Z,0.40
2023-01-21T09:21:04.613Z,-1.40
2023-01-21T09:23:34.281Z,-0.40
2023-01-21T09:26:00.840Z,-0.70
2023-01-21T09:28:27.640Z,-0.70
2023-01-21T09:30:59.070Z,-0.80
2023-01-21T09:33:26.224Z,-0.60
2023-01-21T09:35:56.403Z,-0.80
2023-01-21T09:38:23.756Z,-1.20
2023-01-21T09:40:50.500Z,-1.10
2023-01-21T09:43:27.199Z,-0.20
2023-01-21T09:45:55.879Z,-0.70
2023-01-21T09:48:27.093Z,-0.70
2023-01-21T09:50:53.822Z,-0.80
2023-01-21T09:53:26.355Z,-0.90
2023-01-21T09:55:53.458Z,-0.40
2023-01-21T09:58:24.540Z,-0.70
2023-01-21T10:01:05.406Z,-0.90
2023-01-21T10:03:41.295Z,-1.30
2023-01-21T10:06:09.720Z,-0.80
2023-01-21T10:08:48.747Z,-1.00
2023-01-21T10:11:15.321Z,-0.80
2023-01-21T10:13:54.211Z,-0.30
2023-01-21T10:16:30.199Z,-0.70
2023-01-21T10:18:58.524Z,-0.70
2023-01-21T10:21:31.208Z,-0.80
2023-01-21T10:24:06.920Z,-0.70
2023-01-21T10:26:34.443Z,-0.70
2023-01-21T10:29:01.701Z,-0.90
2023-01-21T10:31:29.588Z,-0.80
2023-01-21T10:33:56.330Z,-0.80
2023-01-21T10:36:34.999Z,-0.70
2023-01-21T10:39:20.702Z,-0.50
2023-01-21T10:42:05.670Z,-0.50
2023-01-21T10:44:32.334Z,-0.40
2023-01-21T10:47:03.339Z,-0.60
2023-01-21T10:49:48.956Z,-0.60
2023-01-21T10:52:18.761Z,-0.50
2023-01-21T10:54:49.461Z,-0.40
2023-01-21T10:57:31.599Z,-0.60
2023-01-21T10:59:59.585Z,-0.60
2023-01-21T11:02:33.383Z,-0.40
2023-01-21T11:05:04.566Z,-0.20
2023-01-21T11:07:33.630Z,-0.20
2023-01-21T11:10:01.222Z,-0.20
2023-01-21T11:12:27.961Z,0.00
2023-01-21T11:14:56.890Z,-0.10
2023-01-21T11:17:31.144Z,-0.10
2023-01-21T11:19:59.297Z,0.00
2023-01-21T11:22:28.931Z,-0.10
2023-01-21T11:24:55.555Z,0.00
2023-01-21T11:27:33.059Z,-0.20
2023-01-21T11:29:59.775Z,-0.10
2023-01-21T11:32:27.813Z,-0.20
2023-01-21T11:35:01.509Z,0.00
2023-01-21T11:37:28.889Z,0.20
2023-01-21T11:40:05.047Z,-0.30
2023-01-21T11:42:31.801Z,0.10
2023-01-21T11:45:04.425Z,0.20
2023-01-21T11:47:35.989Z,0.50
2023-01-21T11:50:09.399Z,0.70
2023-01-21T11:52:35.962Z,0.50
2023-01-21T11:55:03.902Z,0.40
2023-01-21T11:57:31.667Z,0.40
2023-01-21T12:00:00.248Z,0.50
2023-01-21T12:02:31.324Z,0.40
2023-01-21T12:05:11.662Z,0.60
2023-01-21T12:07:39.710Z,0.60
2023-01-21T12:10:12.533Z,0.60
2023-01-21T12:12:39.198Z,0.60
2023-01-21T12:15:16.500Z,0.40
2023-01-21T12:17:43.071Z,0.50
2023-01-21T12:20:19.102Z,0.40
2023-01-21T12:22:45.871Z,0.50
2023-01-21T12:25:21.237Z,0.30
2023-01-21T12:28:06.163Z,0.50
2023-01-21T12:30:43.910Z,0.50
2023-01-21T12:33:19.351Z,0.40
2023-01-21T12:35:51.496Z,0.40
2023-01-21T12:38:21.297Z,0.50
2023-01-21T12:40:52.118Z,0.40
2023-01-21T12:43:18.703Z,0.20
2023-01-21T12:45:57.239Z,0.10
2023-01-21T12:48:36.099Z,0.50
2023-01-21T12:51:05.583Z,0.50
2023-01-21T12:53:35.185Z,0.30
2023-01-21T12:56:01.776Z,0.50
2023-01-21T12:58:32.807Z,0.60
2023-01-21T13:01:11.200Z,0.50
2023-01-21T13:03:44.018Z,0.80
2023-01-21T13:06:51.942Z,0.60
2023-01-21T13:09:21.915Z,0.40
2023-01-21T13:11:54.600Z,0.50
2023-01-21T13:14:21.270Z,0.90
2023-01-21T13:16:51.217Z,0.80
2023-01-21T13:19:17.866Z,0.80
2023-01-21T13:22:06.475Z,0.60
2023-01-21T13:24:51.830Z,0.90
2023-01-21T13:27:21.557Z,0.80
2023-01-21T13:29:51.280Z,0.40
2023-01-21T13:32:20.928Z,0.80
2023-01-21T13:35:06.808Z,0.80
2023-01-21T13:37:37.091Z,0.80
2023-01-21T13:40:19.803Z,0.70
2023-01-21T13:42:58.697Z,0.80
2023-01-21T13:45:34.641Z,0.70
2023-01-21T13:48:01.539Z,0.80
2023-01-21T13:50:48.522Z,0.70
2023-01-21T13:53:15.153Z,0.50
2023-01-21T13:55:47.840Z,0.60
2023-01-21T13:58:38.362Z,0.70
2023-01-21T14:01:15.232Z,0.70
2023-01-21T14:03:46.217Z,0.70
2023-01-21T14:06:19.669Z,0.10
2023-01-21T14:08:57.136Z,0.70
2023-01-21T14:11:27.057Z,0.60
2023-01-21T14:13:56.726Z,0.30
2023-01-21T14:16:26.393Z,0.60
2023-01-21T14:19:07.517Z,0.60
2023-01-21T14:21:48.171Z,0.70
2023-01-21T14:24:39.277Z,0.60
2023-01-21T14:27:05.956Z,0.50
2023-01-21T14:29:39.481Z,0.40
2023-01-21T14:32:09.238Z,1.90
2023-01-21T14:34:49.729Z,0.40
2023-01-21T14:37:36.586Z,0.40
2023-01-21T14:40:08.313Z,0.30
2023-01-21T14:42:40.937Z,0.10
2023-01-21T14:45:08.287Z,0.40
2023-01-21T14:47:34.892Z,0.40
2023-01-21T14:50:01.589Z,0.10
2023-01-21T14:52:33.629Z,0.30
2023-01-21T14:55:00.655Z,0.40
2023-01-21T14:57:35.029Z,0.30
2023-01-21T15:00:10.168Z,0.30
2023-01-21T15:02:42.146Z,-0.10
2023-01-21T15:05:18.161Z,-0.10
2023-01-21T15:07:47.003Z,0.30
2023-01-21T15:10:29.219Z,0.20
2023-01-21T15:12:57.462Z,0.30
2023-01-21T15:15:40.683Z,0.10
2023-01-21T15:18:10.387Z,0.30
2023-01-21T15:20:40.126Z,0.30
2023-01-21T15:23:33.266Z,0.40
2023-01-21T15:26:06.119Z,0.10
2023-01-21T15:28:45.131Z,0.10
2023-01-21T15:31:21.251Z,0.10
2023-01-21T15:33:56.510Z,0.00
2023-01-21T15:36:31.198Z,0.00
2023-01-21T15:39:01.968Z,-0.10
2023-01-21T15:41:47.732Z,-0.30
2023-01-21T15:44:20.532Z,-0.10
2023-01-21T15:47:07.300Z,-0.10
2023-01-21T15:49:47.822Z,-0.10
2023-01-21T15:52:17.548Z,-0.10
2023-01-21T15:54:44.139Z,-0.20
2023-01-21T15:57:10.747Z,-0.30
2023-01-21T15:59:53.570Z,-0.50
2023-01-21T16:02:22.514Z,-0.20
2023-01-21T16:05:07.975Z,-0.30
2023-01-21T16:07:55.182Z,-0.20
2023-01-21T16:10:26.888Z,-0.20
2023-01-21T16:13:00.713Z,-0.50
2023-01-21T16:15:40.056Z,-0.40
2023-01-21T16:18:11.360Z,-0.30
2023-01-21T16:20:41.879Z,-0.40
2023-01-21T16:23:08.585Z,-0.40
2023-01-21T16:25:44.514Z,-0.30
2023-01-21T16:28:11.183Z,-0.50
2023-01-21T16:30:37.872Z,-0.30
2023-01-21T16:33:11.877Z,-0.60
2023-01-21T16:35:42.644Z,-0.30
2023-01-21T16:38:13.392Z,-0.40
2023-01-21T16:40:40.277Z,-0.50
2023-01-21T16:43:27.039Z,-0.40
2023-01-21T16:46:01.203Z,-0.30
2023-01-21T16:48:32.026Z,-0.40
2023-01-21T16:50:58.825Z,-0.70
2023-01-21T16:53:25.679Z,-0.60
2023-01-21T16:55:54.193Z,-0.50
2023-01-21T16:58:27.235Z,-0.60
2023-01-21T17:00:58.480Z,-0.40
2023-01-21T17:03:25.158Z,-0.40
2023-01-21T17:05:56.891Z,-0.50
2023-01-21T17:08:24.037Z,-0.60
2023-01-21T17:11:01.275Z,-0.50
2023-01-21T17:13:29.033Z,-0.40
2023-01-21T17:16:00.865Z,-0.50
2023-01-21T17:18:30.372Z,-0.50
2023-01-21T17:21:11.620Z,-0.50
2023-01-21T17:23:44.482Z,-0.30
2023-01-21T17:26:18.896Z,-0.30
2023-01-21T17:28:59.874Z,-0.40
2023-01-21T17:31:28.576Z,-0.40
2023-01-21T17:34:02.911Z,-0.40
2023-01-21T17:36:36.066Z,-0.40
2023-01-21T17:39:03.825Z,-0.30
2023-01-21T17:41:34.690Z,-0.50
2023-01-21T17:44:03.170Z,-0.70
2023-01-21T17:46:30.269Z,-0.90
2023-01-21T17:49:07.000Z,-0.40
2023-01-21T17:51:34.590Z,-0.50
2023-01-21T17:54:08.984Z,-0.50
2023-01-21T17:56:48.119Z,-0.40
2023-01-21T17:59:38.140Z,-0.40
2023-01-21T18:02:08.963Z,-0.30
2023-01-21T18:04:35.821Z,-0.40
2023-01-21T18:07:02.664Z,-0.60
2023-01-21T18:09:29.620Z,0.80
2023-01-21T18:15:20.539Z,-0.40
2023-01-21T18:17:48.486Z,0.70
2023-01-21T18:20:16.578Z,-0.30
2023-01-21T18:22:43.430Z,-0.30
2023-01-21T18:25:11.826Z,-0.30
2023-01-21T18:27:39.063Z,-0.20
2023-01-21T18:30:16.202Z,-0.50
2023-01-21T18:32:43.130Z,-0.30
2023-01-21T18:35:10.248Z,-0.50
2023-01-21T18:37:37.183Z,-0.60
2023-01-21T18:40:05.763Z,-0.50
2023-01-21T18:42:32.472Z,-0.30
2023-01-21T18:44:59.124Z,-0.50
2023-01-21T18:47:25.776Z,-0.30
2023-01-21T18:49:52.440Z,-0.30
2023-01-21T18:52:20.171Z,-0.50
2023-01-21T18:54:46.840Z,-0.50
2023-01-21T18:57:15.101Z,-0.50
2023-01-21T18:59:41.923Z,-0.50
2023-01-21T19:02:16.459Z,-0.50
2023-01-21T19:04:43.515Z,-0.30
2023-01-21T19:07:20.786Z,-0.50
2023-01-21T19:09:50.013Z,-0.50
2023-01-21T19:12:18.509Z,-0.40
2023-01-21T19:14:45.252Z,-0.40
2023-01-21T19:17:19.606Z,-0.40
2023-01-21T19:19:46.254Z,-0.30
2023-01-21T19:22:14.251Z,-0.60
2023-01-21T19:24:41.085Z,-0.50
2023-01-21T19:27:14.385Z,-0.50
2023-01-21T19:29:41.076Z,-0.40
2023-01-21T19:32:13.496Z,-0.50
2023-01-21T19:34:41.961Z,-0.60
2023-01-21T19:37:26.726Z,-0.70
2023-01-21T19:39:53.375Z,-0.60
2023-01-21T19:42:20.006Z,-0.60
2023-01-21T19:44:46.627Z,-1.10
2023-01-21T19:47:22.972Z,-0.80
2023-01-21T19:49:50.774Z,-0.60
2023-01-21T19:52:17.434Z,-1.00
2023-01-21T19:54:44.104Z,-0.70
2023-01-21T19:57:14.831Z,-0.70
2023-01-21T19:59:42.956Z,-0.70
2023-01-21T20:02:12.938Z,-0.90
2023-01-21T20:04:39.914Z,-0.50
2023-01-21T20:07:07.187Z,-0.70
2023-01-21T20:09:33.874Z,-0.80
2023-01-21T20:12:02.228Z,-1.10
2023-01-21T20:14:30.862Z,-0.70
2023-01-21T20:16:57.576Z,-0.80
2023-01-21T20:19:24.534Z,-0.70
2023-01-21T20:22:01.254Z,-0.70
2023-01-21T20:24:30.453Z,0.10
2023-01-21T20:26:57.907Z,-0.60
2023-01-21T20:29:26.624Z,-0.80
2023-01-21T20:31:54.339Z,-0.90
2023-01-21T20:34:21.131Z,-0.60
2023-01-21T20:36:49.681Z,-0.60
2023-01-21T20:39:16.360Z,-0.60
2023-01-21T20:41:43.537Z,-0.80
2023-01-21T20:44:10.461Z,-0.70
2023-01-21T20:46:37.180Z,-0.80
2023-01-21T20:49:03.854Z,-0.80
2023-01-21T20:51:30.671Z,-0.60
2023-01-21T20:53:57.324Z,-0.60
2023-01-21T20:56:28.817Z,-0.50
2023-01-21T20:58:55.495Z,-0.50
2023-01-21T21:01:23.012Z,-0.60
2023-01-21T21:03:49.918Z,-0.70
2023-01-21T21:06:18.026Z,-0.60
2023-01-21T21:08:47.658Z,-0.60
2023-01-21T21:11:15.120Z,0.40
2023-01-21T21:13:42.092Z,-0.70
2023-01-21T21:16:14.845Z,-0.70
2023-01-21T21:18:41.557Z,-0.60
2023-01-21T21:21:09.838Z,-1.10
2023-01-21T21:23:36.463Z,0.70
2023-01-21T21:26:03.175Z,-0.80
2023-01-21T21:28:29.829Z,-0.90
2023-01-21T21:30:56.622Z,-0.90
2023-01-21T21:33:23.381Z,-0.80
